Aérodrome :
LOGIN :

S'inscrire | Disclaimer

   EN    FR    IT 

 










Légende :    VFR   VFR Marginal   IFR   IFR Intensif   IFR Très Intensif
Visi : 
Plafond : 
>= 8 km
>= 3000ft
5 à 8 km
1000 à 3000 ft
1500m à 5 km
500 à 1000 ft
800 à 1500m
200 à 500 ft
< 800m
< 200 ft
Symboles :   Orages  Brouillard  Fortes neiges  Fortes précipitations  Vent > 20 kt
SIGMETs :   Divers  Orages  Givrage  Turbulence  Onde Orograph.  Cendres Volcan.






- Altitude de l'aérodrome : 580 ft


LFOA - Avord

DERNIER METAR :
  • 160800Z AUTO 05011KT CAVOK 06/M01 Q1024 TEMPO 03015G25KT

METARs EXPIRÉS :
  • 160730Z AUTO 05012KT CAVOK 05/M01 Q1024 TEMPO 03015G25KT
  • 160700Z AUTO 05009KT CAVOK 05/M01 Q1024 TEMPO 03015G25KT
  • 160630Z AUTO 04010KT CAVOK 04/M02 Q1024 TEMPO 03015G25KT
  • 160600Z AUTO 04010KT CAVOK 03/M02 Q1024 NOSIG
  • 160530Z AUTO 04011KT CAVOK 02/M02 Q1023 NOSIG

TAF AMD TAF LFOA
Valide du 16 à 04h jusqu'au 17 à 03h UTC


160440Z 1604/1703 04010KT CAVOK TX11/1614Z TN01/1605Z
TEMPO 1608/1619 03015G25KT



MET'MAP, la Météo Aéronautique d'un coup d'oeil ! - Copyright ORBIFLY Décembre 2007 - Disclaimer

ORBIFLY MET'MAP TEAM :

Programmation & Développement : Alexandra Zaïnal
Sur une idée originale de : Baudouin d'Aumeries
Assistance à la programmation : Marc-Olivier Méhu
Soutien technique & logistique : Manuel Goepfert

Contact : metmap@orbifly.com




SOURCES & CREDITS :

   NOAA